Time;durP1;ratioP1;P1;durP2;ratioP2;P2;SDS_P1;SDS_P2;PMS_P1;PMS_P2;Temp;Humidity;BMP_temperature;BMP_pressure;BME280_temperature;BME280_humidity;BME280_pressure;Samples;Min_cycle;Max_cycle;Signal;HPM_P1;HPM_P2
2023/09/12 00:00:57;;;;;;;6.95;6.15;;;;;;;;;;6185648;23;20527;-72
2023/09/12 00:03:23;;;;;;;7.75;5.70;;;;;;;;;;6185417;23;20072;-72
2023/09/12 00:05:56;;;;;;;6.50;5.80;;;;;;;;;;6185787;23;20395;-72
2023/09/12 00:08:23;;;;;;;8.77;5.90;;;;;;;;;;6185772;23;20072;-72
2023/09/12 00:11:18;;;;;;;7.28;6.15;;;;;;;;;;6185775;23;20072;-72
2023/09/12 00:13:45;;;;;;;7.00;6.10;;;;;;;;;;6140957;23;20088;-71
2023/09/12 00:16:11;;;;;;;8.73;5.70;;;;;;;;;;6185487;23;20068;-71
2023/09/12 00:18:38;;;;;;;7.65;5.90;;;;;;;;;;6159417;23;20076;-72
2023/09/12 00:21:05;;;;;;;9.95;6.28;;;;;;;;;;6185744;23;20488;-72
2023/09/12 00:23:31;;;;;;;7.50;5.60;;;;;;;;;;6185400;23;20080;-71
2023/09/12 00:25:58;;;;;;;8.27;5.93;;;;;;;;;;6185757;23;20080;-71
2023/09/12 00:28:24;;;;;;;7.10;5.93;;;;;;;;;;6185767;23;20068;-72
2023/09/12 00:30:52;;;;;;;7.40;5.75;;;;;;;;;;6185179;23;20075;-72
2023/09/12 00:33:18;;;;;;;7.05;5.88;;;;;;;;;;6185552;23;20084;-72
2023/09/12 00:35:45;;;;;;;6.47;5.85;;;;;;;;;;6185726;23;20068;-72
2023/09/12 00:38:11;;;;;;;6.70;5.55;;;;;;;;;;6185621;23;20076;-72
2023/09/12 00:40:38;;;;;;;13.55;6.07;;;;;;;;;;6159196;23;20081;-72
2023/09/12 00:43:04;;;;;;;7.43;6.30;;;;;;;;;;6185497;23;20072;-72
2023/09/12 00:45:31;;;;;;;8.98;5.85;;;;;;;;;;6185028;23;20393;-72
2023/09/12 00:47:58;;;;;;;7.20;5.97;;;;;;;;;;6185544;23;20127;-72
2023/09/12 00:50:25;;;;;;;7.93;5.78;;;;;;;;;;6185471;23;20103;-72
2023/09/12 00:52:52;;;;;;;9.15;6.18;;;;;;;;;;6159272;23;20115;-72
2023/09/12 00:55:19;;;;;;;6.38;5.70;;;;;;;;;;6185295;23;20068;-72
2023/09/12 00:57:45;;;;;;;6.05;5.38;;;;;;;;;;6185363;23;20079;-72
2023/09/12 01:00:13;;;;;;;6.50;5.03;;;;;;;;;;6184976;23;20089;-71
2023/09/12 01:02:43;;;;;;;5.90;5.30;;;;;;;;;;6185334;23;20080;-72
2023/09/12 01:05:10;;;;;;;;;;;;;;;;;;6185637;23;20092;-71
2023/09/12 01:07:39;;;;;;;6.20;4.93;;;;;;;;;;6185254;23;19971;-72
2023/09/12 01:10:06;;;;;;;5.47;4.93;;;;;;;;;;6185257;23;20068;-71
2023/09/12 01:12:33;;;;;;;5.68;4.95;;;;;;;;;;6185236;23;20075;-71
2023/09/12 01:14:59;;;;;;;7.35;5.00;;;;;;;;;;6184859;23;20068;-71
2023/09/12 01:17:27;;;;;;;6.80;5.63;;;;;;;;;;6185189;23;20495;-72
2023/09/12 01:19:53;;;;;;;5.35;4.60;;;;;;;;;;6185100;23;20081;-71
2023/09/12 01:22:26;;;;;;;6.25;4.80;;;;;;;;;;6185279;23;20076;-72
2023/09/12 01:25:07;;;;;;;7.43;5.00;;;;;;;;;;6185270;23;20099;-72
2023/09/12 01:27:35;;;;;;;5.63;4.50;;;;;;;;;;6184788;23;20072;-72
2023/09/12 01:30:06;;;;;;;4.93;4.43;;;;;;;;;;6185176;23;20108;-72
2023/09/12 01:32:33;;;;;;;9.85;4.95;;;;;;;;;;6184887;23;20084;-72
2023/09/12 01:35:00;;;;;;;4.82;4.40;;;;;;;;;;6185136;23;20080;-72
2023/09/12 01:37:26;;;;;;;5.63;4.65;;;;;;;;;;6185011;23;20068;-71
2023/09/12 01:39:53;;;;;;;5.18;4.75;;;;;;;;;;6185009;23;20072;-72
2023/09/12 01:42:21;;;;;;;4.95;4.45;;;;;;;;;;6184639;23;20427;-72
2023/09/12 01:44:49;;;;;;;5.32;4.15;;;;;;;;;;6184524;23;20104;-72
2023/09/12 01:47:16;;;;;;;5.10;4.05;;;;;;;;;;6184987;23;20077;-72
2023/09/12 01:49:43;;;;;;;5.75;4.13;;;;;;;;;;6184823;23;20072;-72
2023/09/12 01:52:10;;;;;;;9.50;4.18;;;;;;;;;;6184873;23;20555;-72
2023/09/12 01:54:37;;;;;;;6.28;4.47;;;;;;;;;;6184847;23;20068;-72
2023/09/12 01:57:03;;;;;;;5.45;4.68;;;;;;;;;;6184406;23;20495;-72
2023/09/12 01:59:30;;;;;;;5.97;3.92;;;;;;;;;;6184935;23;20500;-72
2023/09/12 02:01:56;;;;;;;7.93;4.22;;;;;;;;;;6184650;23;20080;-71
2023/09/12 02:04:23;;;;;;;7.97;4.28;;;;;;;;;;6184542;23;20400;-71
2023/09/12 02:06:49;;;;;;;4.45;4.05;;;;;;;;;;6133790;23;20084;-71
2023/09/12 02:09:15;;;;;;;6.97;4.13;;;;;;;;;;6184776;23;20076;-72
2023/09/12 02:11:42;;;;;;;4.68;4.18;;;;;;;;;;6184340;23;20081;-72
2023/09/12 02:14:08;;;;;;;5.50;3.90;;;;;;;;;;6158363;23;20443;-72
2023/09/12 02:16:37;;;;;;;4.40;4.00;;;;;;;;;;6184733;23;20076;-72
2023/09/12 02:19:03;;;;;;;5.07;4.00;;;;;;;;;;6184648;23;20092;-71
2023/09/12 02:21:30;;;;;;;5.13;4.63;;;;;;;;;;6158310;23;20080;-72
2023/09/12 02:23:56;;;;;;;4.93;4.03;;;;;;;;;;6184314;23;20092;-72
2023/09/12 02:26:23;;;;;;;5.47;4.13;;;;;;;;;;6183845;23;20395;-71
2023/09/12 02:28:49;;;;;;;4.72;4.32;;;;;;;;;;6184553;23;20426;-70
2023/09/12 02:31:15;;;;;;;4.50;4.10;;;;;;;;;;6184497;23;20131;-71
2023/09/12 02:33:42;;;;;;;6.10;4.03;;;;;;;;;;6184425;23;20072;-71
2023/09/12 02:36:09;;;;;;;5.35;4.63;;;;;;;;;;6184551;23;20068;-71
2023/09/12 02:38:35;;;;;;;5.63;4.47;;;;;;;;;;6184463;23;20068;-72
2023/09/12 02:41:02;;;;;;;6.90;4.00;;;;;;;;;;6184133;23;20076;-72
2023/09/12 02:43:29;;;;;;;5.72;4.78;;;;;;;;;;6184343;23;20080;-71
2023/09/12 02:45:55;;;;;;;4.82;4.18;;;;;;;;;;6184419;23;20100;-72
2023/09/12 02:48:22;;;;;;;6.53;4.40;;;;;;;;;;6158285;23;20068;-71
2023/09/12 02:50:48;;;;;;;7.32;4.30;;;;;;;;;;6184466;23;20076;-72
2023/09/12 02:53:14;;;;;;;5.88;4.32;;;;;;;;;;6184324;23;20064;-72
2023/09/12 02:55:40;;;;;;;5.05;4.55;;;;;;;;;;6184035;23;20092;-70
2023/09/12 02:58:07;;;;;;;4.75;4.30;;;;;;;;;;6184403;23;20076;-72
2023/09/12 03:00:33;;;;;;;4.93;4.43;;;;;;;;;;6184357;23;20427;-72
2023/09/12 03:02:59;;;;;;;6.72;4.40;;;;;;;;;;6184465;23;20080;-72
2023/09/12 03:05:26;;;;;;;9.20;4.15;;;;;;;;;;6184055;23;20380;-71
2023/09/12 03:07:52;;;;;;;4.88;4.15;;;;;;;;;;6184302;23;20072;-72
2023/09/12 03:10:19;;;;;;;6.05;4.35;;;;;;;;;;6183992;23;20076;-72
2023/09/12 03:12:45;;;;;;;6.78;5.00;;;;;;;;;;6184464;23;20072;-71
2023/09/12 03:15:11;;;;;;;5.32;4.25;;;;;;;;;;6184392;23;20072;-72
2023/09/12 03:17:38;;;;;;;4.57;4.15;;;;;;;;;;6184289;23;20084;-72
2023/09/12 03:20:08;;;;;;;4.88;4.30;;;;;;;;;;6184305;23;20076;-72
2023/09/12 03:22:38;;;;;;;5.25;4.15;;;;;;;;;;6184065;23;20075;-72
2023/09/12 03:25:05;;;;;;;4.93;3.93;;;;;;;;;;6183740;23;20096;-71
2023/09/12 03:27:32;;;;;;;4.53;4.13;;;;;;;;;;6157930;23;20096;-72
2023/09/12 03:29:59;;;;;;;4.32;3.92;;;;;;;;;;6184241;23;20084;-72
2023/09/12 03:32:25;;;;;;;4.20;3.80;;;;;;;;;;6184321;23;20434;-72
2023/09/12 03:34:51;;;;;;;4.95;4.22;;;;;;;;;;6184250;23;20091;-70
2023/09/12 03:37:18;;;;;;;4.88;4.05;;;;;;;;;;6184257;23;20065;-70
2023/09/12 03:39:44;;;;;;;10.63;4.30;;;;;;;;;;6185759;23;20080;-72
2023/09/12 03:42:10;;;;;;;8.57;4.65;;;;;;;;;;6186148;23;20068;-72
2023/09/12 03:44:36;;;;;;;5.65;4.80;;;;;;;;;;6185947;23;20087;-72
2023/09/12 03:47:03;;;;;;;6.18;5.07;;;;;;;;;;6185960;23;20492;-72
2023/09/12 03:49:29;;;;;;;5.75;4.90;;;;;;;;;;6186084;23;20072;-72
2023/09/12 03:51:56;;;;;;;7.05;4.22;;;;;;;;;;6186348;23;20072;-72
2023/09/12 03:54:22;;;;;;;5.07;4.50;;;;;;;;;;6185588;23;20143;-72
2023/09/12 03:56:48;;;;;;;3.95;3.55;;;;;;;;;;6186114;23;20076;-72
2023/09/12 03:59:15;;;;;;;5.38;3.88;;;;;;;;;;6185932;23;20080;-72
2023/09/12 04:01:41;;;;;;;5.60;3.83;;;;;;;;;;6185985;23;20077;-72
2023/09/12 04:04:07;;;;;;;4.10;3.70;;;;;;;;;;6186311;23;20095;-72
2023/09/12 04:06:34;;;;;;;3.58;3.28;;;;;;;;;;6185840;23;20500;-71
2023/09/12 04:09:00;;;;;;;5.80;3.42;;;;;;;;;;6185462;23;20084;-72
2023/09/12 04:11:26;;;;;;;3.47;3.17;;;;;;;;;;6185816;23;20079;-72
2023/09/12 04:13:53;;;;;;;3.80;3.40;;;;;;;;;;6185693;23;20067;-72
2023/09/12 04:16:19;;;;;;;5.03;3.20;;;;;;;;;;6185912;23;20072;-71
2023/09/12 04:18:45;;;;;;;4.00;3.50;;;;;;;;;;6185499;23;20401;-72
2023/09/12 04:21:12;;;;;;;3.90;3.50;;;;;;;;;;6159454;23;20361;-72
2023/09/12 04:23:38;;;;;;;3.67;3.08;;;;;;;;;;6185111;23;20084;-72
2023/09/12 04:26:04;;;;;;;5.47;3.50;;;;;;;;;;6185559;23;20512;-72
2023/09/12 04:28:31;;;;;;;5.05;3.70;;;;;;;;;;6185568;23;20387;-72
2023/09/12 04:31:06;;;;;;;4.40;3.60;;;;;;;;;;6185690;23;20076;-72
2023/09/12 04:33:32;;;;;;;4.95;4.00;;;;;;;;;;6185592;23;20076;-72
2023/09/12 04:36:02;;;;;;;4.13;3.72;;;;;;;;;;6185216;23;20084;-71
2023/09/12 04:38:28;;;;;;;5.55;3.80;;;;;;;;;;6185626;23;20076;-72
2023/09/12 04:40:56;;;;;;;6.10;3.72;;;;;;;;;;6185640;23;20068;-72
2023/09/12 04:43:22;;;;;;;7.78;4.32;;;;;;;;;;6185205;23;20084;-71
2023/09/12 04:45:48;;;;;;;5.03;3.90;;;;;;;;;;6185490;23;20527;-72
2023/09/12 04:48:15;;;;;;;5.40;4.22;;;;;;;;;;6185371;23;20483;-72
2023/09/12 04:50:42;;;;;;;4.50;4.10;;;;;;;;;;6185246;23;20092;-72
2023/09/12 04:53:08;;;;;;;4.78;4.20;;;;;;;;;;6185402;23;20076;-72
2023/09/12 04:55:38;;;;;;;6.15;4.50;;;;;;;;;;6185325;23;20081;-72
2023/09/12 04:58:08;;;;;;;6.95;4.20;;;;;;;;;;6185316;23;20072;-71
2023/09/12 05:00:34;;;;;;;5.00;4.20;;;;;;;;;;6185274;23;20076;-72
2023/09/12 05:03:01;;;;;;;9.10;4.40;;;;;;;;;;6185379;23;20081;-71
2023/09/12 05:05:28;;;;;;;4.55;4.13;;;;;;;;;;6184818;23;20087;-72
2023/09/12 05:07:54;;;;;;;7.75;4.13;;;;;;;;;;6185196;23;20467;-72
2023/09/12 05:10:20;;;;;;;5.18;4.15;;;;;;;;;;6185366;23;20079;-71
2023/09/12 05:12:46;;;;;;;5.97;4.30;;;;;;;;;;6185251;23;20079;-71
2023/09/12 05:15:13;;;;;;;6.38;3.78;;;;;;;;;;6185072;23;20068;-71
2023/09/12 05:17:39;;;;;;;5.63;3.80;;;;;;;;;;6185326;23;20440;-72
2023/09/12 05:20:06;;;;;;;5.63;3.95;;;;;;;;;;6184732;23;20080;-71
2023/09/12 05:22:32;;;;;;;6.80;4.60;;;;;;;;;;6184933;23;20132;-71
2023/09/12 05:24:58;;;;;;;8.05;3.92;;;;;;;;;;6185037;23;20099;-71
2023/09/12 05:27:25;;;;;;;4.47;3.70;;;;;;;;;;6185006;23;20127;-71
2023/09/12 05:29:51;;;;;;;8.30;4.03;;;;;;;;;;6184906;23;20073;-71
2023/09/12 05:32:17;;;;;;;4.85;4.05;;;;;;;;;;6158820;23;20077;-71
2023/09/12 05:34:45;;;;;;;4.93;4.43;;;;;;;;;;6184393;23;20500;-71
2023/09/12 05:37:11;;;;;;;7.35;4.22;;;;;;;;;;6185113;23;20097;-71
2023/09/12 05:39:37;;;;;;;8.50;4.53;;;;;;;;;;6184958;23;20068;-71
2023/09/12 05:42:04;;;;;;;6.65;4.50;;;;;;;;;;6184952;23;20076;-71
2023/09/12 05:44:30;;;;;;;5.10;4.40;;;;;;;;;;6184653;23;20507;-71
2023/09/12 05:46:57;;;;;;;5.93;4.60;;;;;;;;;;6184846;23;20417;-71
2023/09/12 05:49:23;;;;;;;5.75;4.30;;;;;;;;;;6184150;23;20143;-71
2023/09/12 05:51:49;;;;;;;6.32;4.78;;;;;;;;;;6184668;23;20084;-71
2023/09/12 05:54:16;;;;;;;7.38;4.50;;;;;;;;;;6184886;23;20068;-71
2023/09/12 05:56:42;;;;;;;5.63;4.05;;;;;;;;;;6184692;23;20411;-71
2023/09/12 05:59:09;;;;;;;6.70;4.30;;;;;;;;;;6184728;23;20084;-71
2023/09/12 06:01:35;;;;;;;5.68;4.80;;;;;;;;;;6184422;23;20072;-71
2023/09/12 06:04:01;;;;;;;10.52;4.15;;;;;;;;;;6183844;23;20096;-71
2023/09/12 06:06:28;;;;;;;7.10;4.43;;;;;;;;;;6184631;23;20389;-71
2023/09/12 06:08:55;;;;;;;6.07;4.43;;;;;;;;;;6181235;23;20076;-71
2023/09/12 06:11:22;;;;;;;6.78;4.63;;;;;;;;;;6183672;23;20080;-71
2023/09/12 06:13:48;;;;;;;7.97;4.47;;;;;;;;;;6133114;23;20404;-70
2023/09/12 06:16:14;;;;;;;5.70;4.20;;;;;;;;;;6181367;23;20626;-70
2023/09/12 06:18:41;;;;;;;7.35;3.50;;;;;;;;;;6179205;23;20009;-70
2023/09/12 06:21:08;;;;;;;7.40;3.42;;;;;;;;;;6183687;23;20087;-69
2023/09/12 06:23:35;;;;;;;3.58;3.08;;;;;;;;;;6182726;23;20104;-69
2023/09/12 06:26:01;;;;;;;12.35;3.75;;;;;;;;;;6155692;23;20127;-70
2023/09/12 06:28:28;;;;;;;9.52;3.90;;;;;;;;;;6181187;23;20446;-70
2023/09/12 06:30:56;;;;;;;10.10;3.63;;;;;;;;;;6183219;23;20373;-70
2023/09/12 06:33:23;;;;;;;8.75;3.38;;;;;;;;;;6183010;23;20076;-70
2023/09/12 06:35:50;;;;;;;11.07;3.90;;;;;;;;;;6180082;23;20511;-70
2023/09/12 06:38:16;;;;;;;6.70;3.70;;;;;;;;;;6183830;23;20064;-69
2023/09/12 06:40:43;;;;;;;8.07;3.80;;;;;;;;;;6181693;23;20088;-70
2023/09/12 06:43:09;;;;;;;7.80;3.72;;;;;;;;;;6181951;23;20075;-69
2023/09/12 06:45:37;;;;;;;11.70;3.72;;;;;;;;;;6183169;23;20459;-69
2023/09/12 06:48:04;;;;;;;6.00;3.25;;;;;;;;;;6181235;23;20084;-70
2023/09/12 06:50:30;;;;;;;7.78;3.33;;;;;;;;;;6182495;23;20753;-70
2023/09/12 06:52:57;;;;;;;5.93;3.60;;;;;;;;;;6178667;23;20096;-70
2023/09/12 06:55:23;;;;;;;11.30;3.60;;;;;;;;;;6178586;23;20104;-70
2023/09/12 06:57:49;;;;;;;9.27;3.80;;;;;;;;;;6156031;23;20084;-71
2023/09/12 07:00:16;;;;;;;6.03;3.50;;;;;;;;;;6182688;23;20080;-70
2023/09/12 07:02:43;;;;;;;11.45;3.60;;;;;;;;;;6181660;23;20084;-70
2023/09/12 07:05:09;;;;;;;10.82;3.88;;;;;;;;;;6182341;23;20035;-70
2023/09/12 07:07:35;;;;;;;7.68;3.75;;;;;;;;;;6181865;23;20068;-70
2023/09/12 07:10:03;;;;;;;9.02;3.40;;;;;;;;;;6182730;23;20085;-70
2023/09/12 07:12:29;;;;;;;10.55;3.80;;;;;;;;;;6182618;23;20377;-70
2023/09/12 07:14:55;;;;;;;5.35;3.60;;;;;;;;;;6183873;23;20496;-70
2023/09/12 07:17:22;;;;;;;5.00;3.35;;;;;;;;;;6182691;23;20504;-70
2023/09/12 07:19:48;;;;;;;4.90;3.17;;;;;;;;;;6183400;23;20080;-70
2023/09/12 07:22:15;;;;;;;6.07;4.00;;;;;;;;;;6182032;23;20076;-70
2023/09/12 07:24:41;;;;;;;7.75;3.92;;;;;;;;;;6183015;23;20025;-69
2023/09/12 07:27:07;;;;;;;19.77;4.28;;;;;;;;;;6183859;23;20076;-68
2023/09/12 07:29:34;;;;;;;16.08;5.00;;;;;;;;;;6158060;23;20426;-70
2023/09/12 07:32:00;;;;;;;12.68;3.85;;;;;;;;;;6183755;23;20400;-70
2023/09/12 07:34:26;;;;;;;8.57;3.50;;;;;;;;;;6183732;23;20011;-69
2023/09/12 07:36:53;;;;;;;6.88;3.05;;;;;;;;;;6184082;23;20080;-70
2023/09/12 07:39:20;;;;;;;8.02;3.15;;;;;;;;;;6156909;23;20112;-70
2023/09/12 07:41:46;;;;;;;6.55;3.20;;;;;;;;;;6183899;23;20072;-70
2023/09/12 07:44:15;;;;;;;4.95;3.45;;;;;;;;;;6183112;23;20017;-69
2023/09/12 07:46:41;;;;;;;9.18;3.30;;;;;;;;;;6183022;23;20084;-70
2023/09/12 07:49:09;;;;;;;9.55;3.33;;;;;;;;;;6183434;23;20100;-70
2023/09/12 07:51:35;;;;;;;12.75;3.20;;;;;;;;;;6184417;23;20105;-70
2023/09/12 07:54:02;;;;;;;6.65;3.40;;;;;;;;;;6181801;23;20084;-71
2023/09/12 07:56:28;;;;;;;4.60;3.10;;;;;;;;;;6184246;23;20060;-71
2023/09/12 07:58:57;;;;;;;10.95;3.50;;;;;;;;;;6182962;23;20079;-71
2023/09/12 08:01:23;;;;;;;4.65;2.90;;;;;;;;;;6184120;23;20076;-70
2023/09/12 08:03:50;;;;;;;3.47;2.60;;;;;;;;;;6183402;23;20475;-71
2023/09/12 08:06:17;;;;;;;8.25;2.70;;;;;;;;;;6183780;23;20487;-69
2023/09/12 08:08:43;;;;;;;4.13;2.80;;;;;;;;;;6184223;23;20085;-71
2023/09/12 08:11:09;;;;;;;4.18;2.60;;;;;;;;;;6184040;23;20072;-70
2023/09/12 08:13:36;;;;;;;5.25;2.60;;;;;;;;;;6183090;23;20080;-70
2023/09/12 08:16:02;;;;;;;2.80;2.60;;;;;;;;;;6183808;23;20080;-70
2023/09/12 08:18:31;;;;;;;3.65;2.47;;;;;;;;;;6183123;23;20426;-71
2023/09/12 08:20:58;;;;;;;3.20;2.40;;;;;;;;;;6184338;23;20108;-71
2023/09/12 08:23:24;;;;;;;4.65;2.58;;;;;;;;;;6182495;23;20084;-71
2023/09/12 08:25:51;;;;;;;3.38;2.70;;;;;;;;;;6183211;23;20516;-72
2023/09/12 08:28:17;;;;;;;9.23;2.75;;;;;;;;;;6183470;23;20084;-73
2023/09/12 08:30:46;;;;;;;5.35;2.38;;;;;;;;;;6182005;23;20567;-72
2023/09/12 08:33:12;;;;;;;5.70;2.40;;;;;;;;;;6182841;23;20084;-73
2023/09/12 08:35:38;;;;;;;6.25;2.85;;;;;;;;;;6183919;23;20073;-72
2023/09/12 08:38:05;;;;;;;4.60;2.80;;;;;;;;;;6182512;23;20092;-72
2023/09/12 08:40:35;;;;;;;5.10;2.40;;;;;;;;;;6182765;23;20064;-73
2023/09/12 08:43:03;;;;;;;;;;;;;;;;;;6183047;23;20088;-72
2023/09/12 08:45:30;;;;;;;11.95;3.00;;;;;;;;;;6157077;23;19983;-72
2023/09/12 08:47:59;;;;;;;6.68;2.70;;;;;;;;;;6184346;23;20407;-72
2023/09/12 08:50:30;;;;;;;4.25;2.10;;;;;;;;;;6184179;23;20067;-72
2023/09/12 08:52:57;;;;;;;2.95;2.30;;;;;;;;;;6183097;23;20085;-73
2023/09/12 08:55:23;;;;;;;2.67;2.40;;;;;;;;;;6184094;23;20084;-73
2023/09/12 08:57:51;;;;;;;5.57;2.65;;;;;;;;;;6183393;23;20107;-73
2023/09/12 09:00:17;;;;;;;5.45;2.60;;;;;;;;;;6181798;23;20072;-73
2023/09/12 09:02:44;;;;;;;9.50;2.65;;;;;;;;;;6181884;23;20084;-73
2023/09/12 09:05:11;;;;;;;7.97;2.65;;;;;;;;;;6182806;23;20088;-73
2023/09/12 09:07:38;;;;;;;10.52;2.63;;;;;;;;;;6183367;23;20124;-73
2023/09/12 09:10:06;;;;;;;4.72;2.33;;;;;;;;;;6183803;23;20116;-71
2023/09/12 09:12:33;;;;;;;5.07;2.70;;;;;;;;;;6180694;23;20087;-70
2023/09/12 09:14:59;;;;;;;8.45;3.00;;;;;;;;;;6182768;23;20523;-71
2023/09/12 09:17:26;;;;;;;7.25;2.65;;;;;;;;;;6182269;23;20076;-71
2023/09/12 09:19:54;;;;;;;2.95;2.38;;;;;;;;;;6156866;23;20079;-71
2023/09/12 09:22:20;;;;;;;4.57;2.35;;;;;;;;;;6183023;23;20076;-71
2023/09/12 09:24:46;;;;;;;5.25;2.40;;;;;;;;;;6182730;23;20112;-71
2023/09/12 09:27:33;;;;;;;2.90;2.47;;;;;;;;;;6156495;23;20088;-71
2023/09/12 09:29:59;;;;;;;3.70;2.72;;;;;;;;;;6183047;23;20084;-71
2023/09/12 09:32:25;;;;;;;4.15;2.60;;;;;;;;;;6182587;23;20080;-71
2023/09/12 09:34:53;;;;;;;4.60;2.40;;;;;;;;;;6181167;23;20092;-71
2023/09/12 09:37:19;;;;;;;2.80;2.60;;;;;;;;;;6182448;23;20080;-71
2023/09/12 09:39:47;;;;;;;4.38;2.50;;;;;;;;;;6181552;23;20076;-71
2023/09/12 09:42:14;;;;;;;10.35;2.70;;;;;;;;;;6182610;23;20071;-71
2023/09/12 09:44:40;;;;;;;4.93;2.50;;;;;;;;;;6182945;23;20019;-71
2023/09/12 09:47:08;;;;;;;6.13;2.25;;;;;;;;;;6183356;23;20080;-71
2023/09/12 09:49:34;;;;;;;4.55;2.40;;;;;;;;;;6183347;23;20397;-71
2023/09/12 09:52:04;;;;;;;5.93;2.40;;;;;;;;;;6183042;23;20100;-71
2023/09/12 09:54:30;;;;;;;;;;;;;;;;;;6183265;23;20084;-71
2023/09/12 09:56:57;;;;;;;4.65;2.47;;;;;;;;;;6156984;23;19979;-71
2023/09/12 09:59:27;;;;;;;2.97;2.33;;;;;;;;;;6182158;23;20238;-71
2023/09/12 10:01:57;;;;;;;4.80;2.70;;;;;;;;;;6183266;23;20076;-71
2023/09/12 10:04:23;;;;;;;5.78;2.90;;;;;;;;;;6182035;23;20076;-71
2023/09/12 10:06:50;;;;;;;11.32;2.85;;;;;;;;;;6182883;23;20076;-71
2023/09/12 10:09:17;;;;;;;6.75;2.45;;;;;;;;;;6183469;23;20068;-70
2023/09/12 10:11:44;;;;;;;6.10;2.80;;;;;;;;;;6182923;23;20072;-71
2023/09/12 10:14:12;;;;;;;12.60;3.03;;;;;;;;;;6184327;23;20072;-71
2023/09/12 10:16:45;;;;;;;6.13;2.90;;;;;;;;;;6183013;23;20526;-71
2023/09/12 10:19:19;;;;;;;6.18;2.88;;;;;;;;;;6182892;23;20072;-71
2023/09/12 10:21:49;;;;;;;4.15;2.70;;;;;;;;;;6183561;23;20083;-71
2023/09/12 10:24:16;;;;;;;6.63;2.50;;;;;;;;;;6156572;23;20080;-71
2023/09/12 10:26:45;;;;;;;4.45;2.28;;;;;;;;;;6183766;23;20047;-71
2023/09/12 10:29:18;;;;;;;2.67;2.47;;;;;;;;;;6182226;23;20080;-71
2023/09/12 10:31:44;;;;;;;9.57;2.75;;;;;;;;;;6183687;23;20136;-70
2023/09/12 10:34:12;;;;;;;4.70;2.55;;;;;;;;;;6183841;23;20085;-71
2023/09/12 10:36:39;;;;;;;5.45;2.35;;;;;;;;;;6183576;23;20064;-72
2023/09/12 10:39:06;;;;;;;5.53;2.38;;;;;;;;;;6183230;23;20080;-73
2023/09/12 10:41:33;;;;;;;4.63;2.42;;;;;;;;;;6183665;23;20068;-73
2023/09/12 10:43:59;;;;;;;5.57;2.72;;;;;;;;;;6183481;23;20076;-73
2023/09/12 10:46:26;;;;;;;4.43;2.70;;;;;;;;;;6183506;23;20079;-72
2023/09/12 10:48:53;;;;;;;3.15;2.60;;;;;;;;;;6183376;23;20084;-72
2023/09/12 10:51:19;;;;;;;5.28;2.30;;;;;;;;;;6183564;23;20502;-72
2023/09/12 10:53:51;;;;;;;5.10;2.72;;;;;;;;;;6183143;23;20389;-72
2023/09/12 10:56:19;;;;;;;5.95;3.08;;;;;;;;;;6183673;23;20076;-72
2023/09/12 10:59:06;;;;;;;2.75;2.50;;;;;;;;;;6183612;23;20080;-73
2023/09/12 11:01:33;;;;;;;4.57;2.70;;;;;;;;;;6183804;23;20068;-73
2023/09/12 11:03:59;;;;;;;3.22;2.47;;;;;;;;;;6183525;23;20080;-73
2023/09/12 11:06:30;;;;;;;4.63;2.90;;;;;;;;;;6183548;23;20076;-72
2023/09/12 11:09:15;;;;;;;11.70;2.83;;;;;;;;;;6183481;23;20072;-69
2023/09/12 11:11:42;;;;;;;3.83;2.22;;;;;;;;;;6183527;23;20088;-68
2023/09/12 11:14:08;;;;;;;3.58;2.75;;;;;;;;;;6183725;23;20396;-68
2023/09/12 11:16:35;;;;;;;4.50;2.60;;;;;;;;;;6183756;23;20068;-69
2023/09/12 11:19:14;;;;;;;6.72;2.70;;;;;;;;;;6183822;23;20076;-69
2023/09/12 11:21:41;;;;;;;5.10;2.53;;;;;;;;;;6183831;23;20084;-69
2023/09/12 11:24:07;;;;;;;4.38;2.60;;;;;;;;;;6183032;23;20084;-69
2023/09/12 11:26:34;;;;;;;4.57;2.63;;;;;;;;;;6183562;23;20076;-69
2023/09/12 11:29:13;;;;;;;16.45;3.25;;;;;;;;;;6183662;23;20409;-69
2023/09/12 11:31:42;;;;;;;3.30;2.92;;;;;;;;;;6157359;23;20076;-69
2023/09/12 11:34:11;;;;;;;5.03;2.58;;;;;;;;;;6183646;23;20499;-68
2023/09/12 11:36:42;;;;;;;4.70;3.10;;;;;;;;;;6183131;23;20080;-68
2023/09/12 11:39:25;;;;;;;3.83;2.85;;;;;;;;;;6183597;23;20080;-69
2023/09/12 11:41:51;;;;;;;7.32;2.88;;;;;;;;;;6154893;23;20080;-69
2023/09/12 11:44:20;;;;;;;8.77;3.30;;;;;;;;;;6180263;23;20084;-69
2023/09/12 11:46:50;;;;;;;5.40;2.80;;;;;;;;;;6182574;23;20076;-70
2023/09/12 11:49:17;;;;;;;6.55;2.83;;;;;;;;;;6182668;23;20072;-69
2023/09/12 11:51:47;;;;;;;5.18;2.90;;;;;;;;;;6182406;23;20080;-69
2023/09/12 11:54:26;;;;;;;4.78;3.33;;;;;;;;;;6183054;23;20083;-69
2023/09/12 11:56:56;;;;;;;5.07;3.08;;;;;;;;;;6182808;23;20486;-69
2023/09/12 11:59:23;;;;;;;5.40;3.15;;;;;;;;;;6183711;23;20075;-68
2023/09/12 12:01:50;;;;;;;7.38;3.30;;;;;;;;;;6180878;23;20080;-69
2023/09/12 12:04:16;;;;;;;4.25;3.03;;;;;;;;;;6184355;23;20072;-68
2023/09/12 12:06:43;;;;;;;4.97;3.15;;;;;;;;;;6181972;23;20076;-68
2023/09/12 12:09:10;;;;;;;7.20;3.03;;;;;;;;;;6184263;23;20076;-68
2023/09/12 12:11:36;;;;;;;7.13;3.30;;;;;;;;;;6183441;23;20119;-68
2023/09/12 12:14:10;;;;;;;4.18;3.63;;;;;;;;;;6183825;23;20096;-69
2023/09/12 12:16:36;;;;;;;4.07;3.35;;;;;;;;;;6183695;23;20076;-68
2023/09/12 12:19:02;;;;;;;8.10;3.60;;;;;;;;;;6184192;23;20079;-69
2023/09/12 12:21:29;;;;;;;7.75;3.83;;;;;;;;;;6183673;23;20076;-69
2023/09/12 12:23:59;;;;;;;7.13;3.33;;;;;;;;;;6183861;23;20139;-68
2023/09/12 12:26:26;;;;;;;3.70;3.25;;;;;;;;;;6183541;23;20397;-69
2023/09/12 12:28:53;;;;;;;4.75;3.10;;;;;;;;;;6183584;23;20071;-69
2023/09/12 12:31:20;;;;;;;5.25;3.10;;;;;;;;;;6183064;23;20092;-69
2023/09/12 12:33:49;;;;;;;6.20;3.10;;;;;;;;;;6183817;23;20084;-69
2023/09/12 12:36:15;;;;;;;3.60;2.78;;;;;;;;;;6180769;23;20100;-69
2023/09/12 12:38:43;;;;;;;7.13;3.28;;;;;;;;;;6182910;23;20080;-70
2023/09/12 12:41:10;;;;;;;4.10;3.15;;;;;;;;;;6183348;23;20080;-69
2023/09/12 12:43:36;;;;;;;8.85;3.40;;;;;;;;;;6183421;23;20076;-69
2023/09/12 12:46:03;;;;;;;5.22;3.20;;;;;;;;;;6182035;23;20076;-68
2023/09/12 12:48:31;;;;;;;11.77;3.38;;;;;;;;;;6182474;23;20068;-69
2023/09/12 12:50:57;;;;;;;7.25;3.72;;;;;;;;;;6182293;23;20694;-67
2023/09/12 12:53:39;;;;;;;10.38;3.22;;;;;;;;;;6182333;23;20084;-69
2023/09/12 12:56:06;;;;;;;6.90;3.38;;;;;;;;;;6183696;23;20084;-69
2023/09/12 12:58:32;;;;;;;8.38;3.08;;;;;;;;;;6183958;23;20076;-69
2023/09/12 13:00:59;;;;;;;6.07;3.30;;;;;;;;;;6183776;23;20535;-69
2023/09/12 13:03:25;;;;;;;6.00;3.47;;;;;;;;;;6182510;23;20558;-69
2023/09/12 13:05:51;;;;;;;6.07;3.42;;;;;;;;;;6183295;23;20068;-69
2023/09/12 13:08:18;;;;;;;6.88;3.70;;;;;;;;;;6183209;23;20089;-68
2023/09/12 13:10:44;;;;;;;8.25;3.83;;;;;;;;;;6183205;23;20068;-69
2023/09/12 13:13:11;;;;;;;7.40;3.25;;;;;;;;;;6183213;23;20085;-68
2023/09/12 13:15:37;;;;;;;3.83;2.90;;;;;;;;;;6183111;23;20076;-68
2023/09/12 13:18:04;;;;;;;9.52;3.75;;;;;;;;;;6181538;23;20418;-68
2023/09/12 13:20:30;;;;;;;5.10;3.80;;;;;;;;;;6182905;23;20519;-68
2023/09/12 13:22:56;;;;;;;4.53;3.55;;;;;;;;;;6182762;23;20111;-69
2023/09/12 13:25:23;;;;;;;7.90;3.88;;;;;;;;;;6182337;23;20072;-68
2023/09/12 13:27:50;;;;;;;5.15;3.70;;;;;;;;;;6183292;23;20091;-69
2023/09/12 13:30:16;;;;;;;9.65;4.03;;;;;;;;;;6182200;23;20080;-69
2023/09/12 13:32:42;;;;;;;10.45;3.90;;;;;;;;;;6181812;23;20080;-68
2023/09/12 13:35:08;;;;;;;11.93;4.60;;;;;;;;;;6182366;23;20023;-69
2023/09/12 13:37:35;;;;;;;11.07;4.43;;;;;;;;;;6182908;23;20096;-68
2023/09/12 13:40:02;;;;;;;8.55;4.45;;;;;;;;;;6182558;23;20107;-68
2023/09/12 13:42:30;;;;;;;9.00;4.55;;;;;;;;;;6183700;23;20093;-69
2023/09/12 13:44:57;;;;;;;8.05;4.45;;;;;;;;;;6183633;23;20076;-68
2023/09/12 13:47:25;;;;;;;9.35;4.60;;;;;;;;;;6182429;23;20144;-68
2023/09/12 13:49:53;;;;;;;9.02;4.75;;;;;;;;;;6182980;23;20076;-69
2023/09/12 13:52:22;;;;;;;13.00;4.68;;;;;;;;;;6182618;23;20072;-68
2023/09/12 13:54:48;;;;;;;10.73;4.75;;;;;;;;;;6181329;23;20080;-68
2023/09/12 13:57:16;;;;;;;6.40;4.53;;;;;;;;;;6183227;23;20092;-68
2023/09/12 13:59:42;;;;;;;8.07;4.20;;;;;;;;;;6181860;23;20069;-68
2023/09/12 14:02:09;;;;;;;5.43;3.78;;;;;;;;;;6180752;23;20088;-68
2023/09/12 14:04:35;;;;;;;12.20;4.40;;;;;;;;;;6181868;23;20076;-68
2023/09/12 14:07:02;;;;;;;14.23;4.45;;;;;;;;;;6156012;23;20111;-68
2023/09/12 14:09:29;;;;;;;10.15;4.60;;;;;;;;;;6182303;23;20084;-68
2023/09/12 14:11:55;;;;;;;12.77;4.32;;;;;;;;;;6155067;23;20136;-68
2023/09/12 14:14:21;;;;;;;8.13;4.40;;;;;;;;;;6182956;23;20020;-69
2023/09/12 14:16:48;;;;;;;10.88;4.25;;;;;;;;;;6181983;23;20079;-68
2023/09/12 14:19:14;;;;;;;8.27;3.90;;;;;;;;;;6155423;23;20402;-68
2023/09/12 14:21:40;;;;;;;16.73;4.75;;;;;;;;;;6182332;23;20080;-68
2023/09/12 14:24:07;;;;;;;8.00;3.92;;;;;;;;;;6156082;23;20100;-68
2023/09/12 14:26:33;;;;;;;8.02;4.35;;;;;;;;;;6181875;23;20100;-68
2023/09/12 14:29:00;;;;;;;7.75;4.28;;;;;;;;;;6182654;23;20490;-68
2023/09/12 14:31:26;;;;;;;10.82;4.03;;;;;;;;;;6154889;23;20449;-69
2023/09/12 14:33:52;;;;;;;11.10;4.97;;;;;;;;;;6182610;23;20128;-68
2023/09/12 14:36:19;;;;;;;9.18;4.43;;;;;;;;;;6182966;23;20092;-68
2023/09/12 14:38:45;;;;;;;12.10;4.28;;;;;;;;;;6182697;23;20068;-68
2023/09/12 14:41:13;;;;;;;8.30;4.82;;;;;;;;;;6182510;23;20515;-69
2023/09/12 14:43:39;;;;;;;8.52;5.05;;;;;;;;;;6182588;23;20073;-68